Hobart Regional Office, Australia
Current Conditions -  °F | °C
As of 6:00 PM on Wednesday 22 Oct 2014 (Local Time) from YMHB Reporting Station
Clear Clear  
Wind Chill: 66°   Ceiling: Unl
Heat Index: 66°   Visibility: 6mi
Dew Point: 46°   Wind: 12mph
Humidity: 49%   Direction: 200°SSW
Pressure: 29.91"   Gusts: NA
Location:  42.88°S, 147.32°E
Report Text: YMHB 220700Z 20010KT CAVOK 19/08 Q1013
Loading
Personal Weather Stations






























Interactive Weather Map
Tropical Storm Tracking
New forecast layout! Learn more

10-Day Weather Forecast

Advertisements
Track Severe Weather on mobile